Time;durP1;ratioP1;P1;durP2;ratioP2;P2;SDS_P1;SDS_P2;PMS_P1;PMS_P2;Temp;Humidity;BMP_temperature;BMP_pressure;BME280_temperature;BME280_humidity;BME280_pressure;Samples;Min_cycle;Max_cycle;Signal;HPM_P1;HPM_P2
2023/06/21 00:00:37;;;;;;;38.80;26.90;;;;;;;;;;4970070;28;20082;-65
2023/06/21 00:03:04;;;;;;;39.47;29.07;;;;;;;;;;4970153;28;20497;-65
2023/06/21 00:05:30;;;;;;;40.57;27.83;;;;;;;;;;4969649;28;20050;-65
2023/06/21 00:07:57;;;;;;;39.97;29.30;;;;;;;;;;4969989;28;20055;-65
2023/06/21 00:10:23;;;;;;;89.27;45.23;;;;;;;;;;4970019;28;20436;-65
2023/06/21 00:12:53;;;;;;;51.17;33.53;;;;;;;;;;4952768;28;20174;-65
2023/06/21 00:15:19;;;;;;;46.87;32.23;;;;;;;;;;4969164;28;20130;-65
2023/06/21 00:17:45;;;;;;;64.13;37.67;;;;;;;;;;4969850;28;20083;-65
2023/06/21 00:20:12;;;;;;;64.27;41.93;;;;;;;;;;4969950;28;20417;-65
2023/06/21 00:22:39;;;;;;;59.83;40.23;;;;;;;;;;4969793;28;20109;-65
2023/06/21 00:25:06;;;;;;;61.80;38.80;;;;;;;;;;4969338;28;20469;-66
2023/06/21 00:27:32;;;;;;;59.00;39.70;;;;;;;;;;4969585;28;20078;-65
2023/06/21 00:29:58;;;;;;;66.53;40.93;;;;;;;;;;4969217;28;20043;-66
2023/06/21 00:32:24;;;;;;;72.53;43.43;;;;;;;;;;4969296;28;20082;-65
2023/06/21 00:34:50;;;;;;;70.17;45.37;;;;;;;;;;4968975;28;20042;-65
2023/06/21 00:37:16;;;;;;;69.57;44.93;;;;;;;;;;4969376;28;20042;-64
2023/06/21 00:39:42;;;;;;;80.17;49.30;;;;;;;;;;4969378;28;20476;-65
2023/06/21 00:42:09;;;;;;;89.27;51.47;;;;;;;;;;4969414;28;20050;-65
2023/06/21 00:44:35;;;;;;;97.00;53.27;;;;;;;;;;4969198;28;20584;-65
2023/06/21 00:47:02;;;;;;;75.53;45.53;;;;;;;;;;4969521;28;20094;-65
2023/06/21 00:49:28;;;;;;;97.20;53.80;;;;;;;;;;4968967;28;20146;-65
2023/06/21 00:51:57;;;;;;;86.17;50.27;;;;;;;;;;4969183;28;20169;-65
2023/06/21 00:54:26;;;;;;;151.07;65.30;;;;;;;;;;4969343;28;20481;-65
2023/06/21 00:56:53;;;;;;;115.93;59.53;;;;;;;;;;4969515;28;20086;-65
2023/06/21 00:59:19;;;;;;;74.00;46.40;;;;;;;;;;4969492;28;20510;-65
2023/06/21 01:01:45;;;;;;;93.80;52.87;;;;;;;;;;4969057;28;20461;-66
2023/06/21 01:04:12;;;;;;;125.07;60.27;;;;;;;;;;4969061;28;20051;-65
2023/06/21 01:06:46;;;;;;;122.93;60.93;;;;;;;;;;4969417;28;20527;-65
2023/06/21 01:09:12;;;;;;;112.70;58.20;;;;;;;;;;4969122;28;20109;-65
2023/06/21 01:11:46;;;;;;;135.33;65.53;;;;;;;;;;4969233;28;20484;-65
2023/06/21 01:14:20;;;;;;;109.87;58.10;;;;;;;;;;4951562;28;20058;-65
2023/06/21 01:16:49;;;;;;;115.00;60.70;;;;;;;;;;4969350;28;20417;-65
2023/06/21 01:19:38;;;;;;;123.43;61.87;;;;;;;;;;4951519;28;20412;-65
2023/06/21 01:22:12;;;;;;;105.80;59.27;;;;;;;;;;4961113;28;20059;-64
2023/06/21 01:25:07;;;;;;;117.13;61.30;;;;;;;;;;4968499;28;20054;-65
2023/06/21 01:27:39;;;;;;;118.37;61.37;;;;;;;;;;4915997;28;20427;-65
2023/06/21 01:30:09;;;;;;;105.87;57.67;;;;;;;;;;4968799;28;20078;-65
2023/06/21 01:32:37;;;;;;;130.33;65.93;;;;;;;;;;4968704;28;20129;-64
2023/06/21 01:35:04;;;;;;;155.47;70.03;;;;;;;;;;4951602;28;20276;-65
2023/06/21 01:37:30;;;;;;;139.03;68.53;;;;;;;;;;4968577;28;20055;-65
2023/06/21 01:39:56;;;;;;;150.13;70.63;;;;;;;;;;4968941;28;20047;-65
2023/06/21 01:42:22;;;;;;;174.30;74.30;;;;;;;;;;4968720;28;20523;-65
2023/06/21 01:44:49;;;;;;;129.83;67.90;;;;;;;;;;4969036;28;20069;-65
2023/06/21 01:47:15;;;;;;;144.47;70.87;;;;;;;;;;4970261;28;20047;-65
2023/06/21 01:49:42;;;;;;;122.37;62.50;;;;;;;;;;4971718;28;20047;-65
2023/06/21 01:52:08;;;;;;;113.60;63.07;;;;;;;;;;4972124;28;20065;-65
2023/06/21 01:54:34;;;;;;;111.07;62.77;;;;;;;;;;4972443;28;20049;-65
2023/06/21 01:57:02;;;;;;;130.43;66.13;;;;;;;;;;4971807;28;20057;-65
2023/06/21 01:59:29;;;;;;;94.20;57.90;;;;;;;;;;4971977;28;20136;-65
2023/06/21 02:01:55;;;;;;;143.40;67.57;;;;;;;;;;4972190;28;20406;-65
2023/06/21 02:04:22;;;;;;;97.93;56.50;;;;;;;;;;4972312;28;20054;-65
2023/06/21 02:06:48;;;;;;;95.00;56.40;;;;;;;;;;4972162;28;20461;-65
2023/06/21 02:09:15;;;;;;;108.87;58.83;;;;;;;;;;4971377;28;20047;-65
2023/06/21 02:11:41;;;;;;;103.50;56.53;;;;;;;;;;4972177;28;20065;-65
2023/06/21 02:14:07;;;;;;;94.83;55.13;;;;;;;;;;4972362;28;20463;-65
2023/06/21 02:16:33;;;;;;;125.93;64.33;;;;;;;;;;4971698;28;20074;-65
2023/06/21 02:18:59;;;;;;;100.27;58.43;;;;;;;;;;4971843;28;20049;-65
2023/06/21 02:21:26;;;;;;;111.17;61.77;;;;;;;;;;4971910;28;20043;-64
2023/06/21 02:23:52;;;;;;;116.20;61.13;;;;;;;;;;4971940;28;20051;-65
2023/06/21 02:26:18;;;;;;;133.03;64.73;;;;;;;;;;4971099;28;20051;-65
2023/06/21 02:28:44;;;;;;;102.13;58.70;;;;;;;;;;4971787;28;20335;-65
2023/06/21 02:31:10;;;;;;;101.27;56.20;;;;;;;;;;4971566;28;20113;-65
2023/06/21 02:33:37;;;;;;;153.93;68.53;;;;;;;;;;4971563;28;20050;-65
2023/06/21 02:36:03;;;;;;;138.67;65.77;;;;;;;;;;4954326;28;20555;-65
2023/06/21 02:38:31;;;;;;;147.63;66.27;;;;;;;;;;4971349;28;20046;-64
2023/06/21 02:40:57;;;;;;;142.23;67.97;;;;;;;;;;4971704;28;20063;-65
2023/06/21 02:43:23;;;;;;;119.03;60.67;;;;;;;;;;4971317;28;20054;-65
2023/06/21 02:45:50;;;;;;;116.77;60.57;;;;;;;;;;4970944;28;20078;-65
2023/06/21 02:48:16;;;;;;;143.67;67.27;;;;;;;;;;4971375;28;20536;-65
2023/06/21 02:50:42;;;;;;;161.50;68.17;;;;;;;;;;4971412;28;20047;-65
2023/06/21 02:53:08;;;;;;;134.00;68.20;;;;;;;;;;4971039;28;20074;-65
2023/06/21 02:55:34;;;;;;;128.93;66.53;;;;;;;;;;4970959;28;20043;-64
2023/06/21 02:58:00;;;;;;;132.73;65.73;;;;;;;;;;4970749;28;20043;-65
2023/06/21 03:00:31;;;;;;;116.57;60.20;;;;;;;;;;4971076;28;20469;-65
2023/06/21 03:03:00;;;;;;;121.50;65.70;;;;;;;;;;4971064;28;20043;-65
2023/06/21 03:05:36;;;;;;;129.83;65.37;;;;;;;;;;4970968;28;20493;-65
2023/06/21 03:08:04;;;;;;;133.30;66.53;;;;;;;;;;4970874;28;20063;-65
2023/06/21 03:10:32;;;;;;;128.00;64.57;;;;;;;;;;4970753;28;20473;-65
2023/06/21 03:12:58;;;;;;;120.27;65.40;;;;;;;;;;4953774;28;20082;-65
2023/06/21 03:15:24;;;;;;;138.00;67.53;;;;;;;;;;4970773;28;20056;-64
2023/06/21 03:17:50;;;;;;;173.17;71.70;;;;;;;;;;4970846;28;20038;-65
2023/06/21 03:20:16;;;;;;;133.13;65.60;;;;;;;;;;4970425;28;20051;-65
2023/06/21 03:22:43;;;;;;;142.87;70.00;;;;;;;;;;4970516;28;20142;-65
2023/06/21 03:25:13;;;;;;;132.70;67.43;;;;;;;;;;4970415;28;20145;-64
2023/06/21 03:27:39;;;;;;;203.53;79.53;;;;;;;;;;4970244;28;20121;-65
2023/06/21 03:30:06;;;;;;;117.57;65.00;;;;;;;;;;4970616;28;20077;-65
2023/06/21 03:32:32;;;;;;;171.87;72.83;;;;;;;;;;4970330;28;20057;-65
2023/06/21 03:34:58;;;;;;;164.10;70.97;;;;;;;;;;4969638;28;20047;-65
2023/06/21 03:37:25;;;;;;;149.67;70.57;;;;;;;;;;4970644;28;20072;-65
2023/06/21 03:39:51;;;;;;;158.23;69.77;;;;;;;;;;4970432;28;20054;-65
2023/06/21 03:42:17;;;;;;;168.93;74.23;;;;;;;;;;4969821;28;20050;-65
2023/06/21 03:44:43;;;;;;;138.73;68.70;;;;;;;;;;4969695;28;20050;-64
2023/06/21 03:47:10;;;;;;;134.23;66.77;;;;;;;;;;4970208;28;20509;-65
2023/06/21 03:49:36;;;;;;;167.27;71.60;;;;;;;;;;4970263;28;20098;-65
2023/06/21 03:52:03;;;;;;;174.10;75.03;;;;;;;;;;4969796;28;20109;-65
2023/06/21 03:54:29;;;;;;;162.13;73.67;;;;;;;;;;4969864;28;20054;-65
2023/06/21 03:56:55;;;;;;;154.37;70.70;;;;;;;;;;4970021;28;20134;-65
2023/06/21 03:59:21;;;;;;;178.77;75.30;;;;;;;;;;4969970;28;20121;-64
2023/06/21 04:01:47;;;;;;;155.07;71.63;;;;;;;;;;4969812;28;20051;-65
2023/06/21 04:04:13;;;;;;;150.87;69.53;;;;;;;;;;4969657;28;20077;-64
2023/06/21 04:06:39;;;;;;;188.17;77.07;;;;;;;;;;4970279;28;20295;-64
2023/06/21 04:09:05;;;;;;;132.30;67.10;;;;;;;;;;4968887;28;20440;-66
2023/06/21 04:11:31;;;;;;;189.30;76.83;;;;;;;;;;4969063;28;20362;-65
2023/06/21 04:13:57;;;;;;;172.40;73.90;;;;;;;;;;4969787;28;20057;-65
2023/06/21 04:16:23;;;;;;;141.43;70.73;;;;;;;;;;4969666;28;20038;-64
2023/06/21 04:18:49;;;;;;;196.83;78.33;;;;;;;;;;4969940;28;20049;-65
2023/06/21 04:21:15;;;;;;;143.67;69.60;;;;;;;;;;4969457;28;20046;-65
2023/06/21 04:23:41;;;;;;;145.87;72.63;;;;;;;;;;4969117;28;20066;-64
2023/06/21 04:26:07;;;;;;;192.80;79.63;;;;;;;;;;4969236;28;20049;-65
2023/06/21 04:28:34;;;;;;;168.87;77.10;;;;;;;;;;4969787;28;20539;-65
2023/06/21 04:31:00;;;;;;;152.23;71.93;;;;;;;;;;4969653;28;20121;-65
2023/06/21 04:33:28;;;;;;;209.53;82.73;;;;;;;;;;4969330;28;20477;-64
2023/06/21 04:35:54;;;;;;;181.10;79.60;;;;;;;;;;4969572;28;20054;-65
2023/06/21 04:38:20;;;;;;;209.70;83.07;;;;;;;;;;4969232;28;20149;-65
2023/06/21 04:40:46;;;;;;;160.57;76.83;;;;;;;;;;4969203;28;20568;-65
2023/06/21 04:43:12;;;;;;;157.90;75.77;;;;;;;;;;4969167;28;20094;-66
2023/06/21 04:45:38;;;;;;;207.40;83.17;;;;;;;;;;4969394;28;20075;-65
2023/06/21 04:48:04;;;;;;;177.10;76.33;;;;;;;;;;4969006;28;20089;-65
2023/06/21 04:50:31;;;;;;;174.93;79.50;;;;;;;;;;4969332;28;20042;-65
2023/06/21 04:53:00;;;;;;;218.27;85.17;;;;;;;;;;4969016;28;20046;-65
2023/06/21 04:55:26;;;;;;;181.10;80.47;;;;;;;;;;4968953;28;20053;-65
2023/06/21 04:57:52;;;;;;;187.50;81.53;;;;;;;;;;4952284;28;20058;-65
2023/06/21 05:00:19;;;;;;;256.50;90.07;;;;;;;;;;4968909;28;20047;-65
2023/06/21 05:02:46;;;;;;;188.00;81.60;;;;;;;;;;4968637;28;20046;-65
2023/06/21 05:05:12;;;;;;;161.93;77.00;;;;;;;;;;4969034;28;20049;-64
2023/06/21 05:07:38;;;;;;;172.83;80.93;;;;;;;;;;4969251;28;20055;-65
2023/06/21 05:10:07;;;;;;;188.73;81.97;;;;;;;;;;4968948;28;20444;-65
2023/06/21 05:12:34;;;;;;;172.90;79.27;;;;;;;;;;4968368;28;20497;-65
2023/06/21 05:15:00;;;;;;;211.97;85.33;;;;;;;;;;4969145;28;20056;-65
2023/06/21 05:17:26;;;;;;;156.93;77.90;;;;;;;;;;4968820;28;20042;-64
2023/06/21 05:19:52;;;;;;;156.60;76.43;;;;;;;;;;4968522;28;20062;-65
2023/06/21 05:22:18;;;;;;;160.07;78.07;;;;;;;;;;4972328;28;20038;-65
2023/06/21 05:24:44;;;;;;;221.43;84.47;;;;;;;;;;4972800;28;20047;-65
2023/06/21 05:27:10;;;;;;;130.87;72.10;;;;;;;;;;4972439;28;20157;-65
2023/06/21 05:29:36;;;;;;;138.87;72.93;;;;;;;;;;4972551;28;20066;-65
2023/06/21 05:32:02;;;;;;;190.23;81.47;;;;;;;;;;4972734;28;20054;-65
2023/06/21 05:34:30;;;;;;;174.50;76.90;;;;;;;;;;4971846;28;20051;-65
2023/06/21 05:36:56;;;;;;;144.03;74.30;;;;;;;;;;4972298;28;20047;-65
2023/06/21 05:39:23;;;;;;;162.73;77.23;;;;;;;;;;4972456;28;20466;-66
2023/06/21 05:41:49;;;;;;;145.43;71.43;;;;;;;;;;4972600;28;20050;-65
2023/06/21 05:44:15;;;;;;;162.73;74.63;;;;;;;;;;4971971;28;20047;-65
2023/06/21 05:46:41;;;;;;;133.93;69.73;;;;;;;;;;4972253;28;20093;-66
2023/06/21 05:49:07;;;;;;;129.20;69.37;;;;;;;;;;4972026;28;20559;-64
2023/06/21 05:51:33;;;;;;;146.83;70.50;;;;;;;;;;4972555;28;20051;-65
2023/06/21 05:53:59;;;;;;;142.60;70.03;;;;;;;;;;4972191;28;20050;-65
2023/06/21 05:56:26;;;;;;;123.47;65.63;;;;;;;;;;4972155;28;20181;-65
2023/06/21 05:58:52;;;;;;;129.63;64.87;;;;;;;;;;4954947;28;20054;-65
2023/06/21 06:01:18;;;;;;;102.13;60.23;;;;;;;;;;4971826;28;20417;-66
2023/06/21 06:03:44;;;;;;;123.03;63.93;;;;;;;;;;4972094;28;20057;-65
2023/06/21 06:06:13;;;;;;;112.27;60.37;;;;;;;;;;4972358;28;20090;-65
2023/06/21 06:08:39;;;;;;;103.60;57.53;;;;;;;;;;4972239;28;20066;-65
2023/06/21 06:11:05;;;;;;;81.53;53.40;;;;;;;;;;4971913;28;20050;-65
2023/06/21 06:13:31;;;;;;;74.80;51.27;;;;;;;;;;4971402;28;20545;-65
2023/06/21 06:15:57;;;;;;;74.13;50.40;;;;;;;;;;4971680;28;20074;-65
2023/06/21 06:18:23;;;;;;;74.50;47.77;;;;;;;;;;4972300;28;20058;-65
2023/06/21 06:20:49;;;;;;;72.03;48.90;;;;;;;;;;4971545;28;20128;-65
2023/06/21 06:23:15;;;;;;;60.53;43.77;;;;;;;;;;4971481;28;20652;-65
2023/06/21 06:25:41;;;;;;;59.67;43.70;;;;;;;;;;4971351;28;20047;-66
2023/06/21 06:28:08;;;;;;;64.20;45.47;;;;;;;;;;4971341;28;20050;-65
2023/06/21 06:30:34;;;;;;;74.97;47.70;;;;;;;;;;4971480;28;20046;-65
2023/06/21 06:33:00;;;;;;;64.77;43.80;;;;;;;;;;4970651;28;20061;-65
2023/06/21 06:35:26;;;;;;;56.43;41.07;;;;;;;;;;4971483;28;20062;-65
2023/06/21 06:37:52;;;;;;;56.73;40.10;;;;;;;;;;4971410;28;20104;-65
2023/06/21 06:40:18;;;;;;;53.57;37.37;;;;;;;;;;4970779;28;20038;-65
2023/06/21 06:42:44;;;;;;;54.50;38.60;;;;;;;;;;4971570;28;20046;-65
2023/06/21 06:45:10;;;;;;;48.67;37.10;;;;;;;;;;4971150;28;20142;-65
2023/06/21 06:47:36;;;;;;;43.80;34.83;;;;;;;;;;4971099;28;20086;-65
2023/06/21 06:50:04;;;;;;;50.07;35.73;;;;;;;;;;4971359;28;20110;-65
2023/06/21 06:52:30;;;;;;;42.30;32.37;;;;;;;;;;4953428;28;20054;-64
2023/06/21 06:54:56;;;;;;;39.03;30.97;;;;;;;;;;4971128;28;20134;-65
2023/06/21 06:57:23;;;;;;;38.37;32.33;;;;;;;;;;4970949;28;20049;-65
2023/06/21 06:59:52;;;;;;;34.63;28.40;;;;;;;;;;4970981;28;20042;-65
2023/06/21 07:02:18;;;;;;;35.73;29.27;;;;;;;;;;4971124;28;20584;-65
2023/06/21 07:04:44;;;;;;;39.93;30.33;;;;;;;;;;4970504;28;20073;-65
2023/06/21 07:07:10;;;;;;;32.50;27.77;;;;;;;;;;4953441;28;20039;-65
2023/06/21 07:09:37;;;;;;;36.50;27.73;;;;;;;;;;4971063;28;20062;-64
2023/06/21 07:12:03;;;;;;;38.07;27.33;;;;;;;;;;4970841;28;20054;-64
2023/06/21 07:14:29;;;;;;;30.07;24.10;;;;;;;;;;4970806;28;20055;-64
2023/06/21 07:16:55;;;;;;;30.80;25.80;;;;;;;;;;4970517;28;20501;-64
2023/06/21 07:19:21;;;;;;;28.10;24.17;;;;;;;;;;4970733;28;20093;-64
2023/06/21 07:21:48;;;;;;;28.20;23.17;;;;;;;;;;4970442;28;20043;-64
2023/06/21 07:24:14;;;;;;;24.20;20.10;;;;;;;;;;4970803;28;20055;-64
2023/06/21 07:26:40;;;;;;;24.63;21.67;;;;;;;;;;4970513;28;20087;-64
2023/06/21 07:29:06;;;;;;;25.37;19.80;;;;;;;;;;4970151;28;20417;-64
2023/06/21 07:31:32;;;;;;;23.23;20.73;;;;;;;;;;4969893;28;20050;-63
2023/06/21 07:33:58;;;;;;;22.77;19.43;;;;;;;;;;4970631;28;20057;-64
2023/06/21 07:36:25;;;;;;;24.20;20.03;;;;;;;;;;4952892;28;20042;-64
2023/06/21 07:38:51;;;;;;;22.63;18.30;;;;;;;;;;4970241;28;20042;-64
2023/06/21 07:41:17;;;;;;;23.93;19.30;;;;;;;;;;4969542;28;20532;-64
2023/06/21 07:43:43;;;;;;;20.40;17.70;;;;;;;;;;4970637;28;20039;-63
2023/06/21 07:46:09;;;;;;;19.40;16.17;;;;;;;;;;4969826;28;20150;-63
2023/06/21 07:48:35;;;;;;;17.57;15.23;;;;;;;;;;4970222;28;20089;-63
2023/06/21 07:51:01;;;;;;;18.33;15.77;;;;;;;;;;4969943;28;20050;-63
2023/06/21 07:53:27;;;;;;;18.77;16.00;;;;;;;;;;4970128;28;20460;-64
2023/06/21 07:55:53;;;;;;;18.20;15.37;;;;;;;;;;4969845;28;20047;-63
2023/06/21 07:58:19;;;;;;;15.73;13.73;;;;;;;;;;4969855;28;20523;-63
2023/06/21 08:00:45;;;;;;;14.70;13.17;;;;;;;;;;4969514;28;20050;-64
2023/06/21 08:03:11;;;;;;;14.33;12.70;;;;;;;;;;4969804;28;20058;-64
2023/06/21 08:05:37;;;;;;;14.40;12.90;;;;;;;;;;4969823;28;20453;-64
2023/06/21 08:08:03;;;;;;;15.87;13.57;;;;;;;;;;4969828;28;20055;-65
2023/06/21 08:10:31;;;;;;;18.80;12.87;;;;;;;;;;4969268;28;20051;-64
2023/06/21 08:12:58;;;;;;;16.63;12.03;;;;;;;;;;4969559;28;20130;-64
2023/06/21 08:15:24;;;;;;;14.17;12.77;;;;;;;;;;4969891;28;20141;-64
2023/06/21 08:17:51;;;;;;;16.30;12.87;;;;;;;;;;4969993;28;20051;-63
2023/06/21 08:20:17;;;;;;;13.47;12.07;;;;;;;;;;4968812;28;20138;-63
2023/06/21 08:22:43;;;;;;;15.93;12.07;;;;;;;;;;4969582;28;20047;-63
2023/06/21 08:25:10;;;;;;;11.85;10.65;;;;;;;;;;4969118;28;20109;-63
2023/06/21 08:27:36;;;;;;;11.47;10.37;;;;;;;;;;4969385;28;20445;-63
2023/06/21 08:30:03;;;;;;;13.00;11.18;;;;;;;;;;4969356;28;20142;-62
2023/06/21 08:32:29;;;;;;;12.40;11.13;;;;;;;;;;4968813;28;20046;-62
2023/06/21 08:34:54;;;;;;;13.40;10.17;;;;;;;;;;4969943;28;20081;-62
2023/06/21 08:37:25;;;;;;;14.27;9.40;;;;;;;;;;4969205;28;20505;-62
2023/06/21 08:39:55;;;;;;;16.55;9.75;;;;;;;;;;4969222;28;20047;-62
2023/06/21 08:42:23;;;;;;;11.18;9.10;;;;;;;;;;4969114;28;20528;-62
2023/06/21 08:44:49;;;;;;;11.20;9.27;;;;;;;;;;4968821;28;20103;-62
2023/06/21 08:47:16;;;;;;;12.35;10.57;;;;;;;;;;4969324;28;20182;-62
2023/06/21 08:49:42;;;;;;;13.07;10.20;;;;;;;;;;4952110;28;20126;-62
2023/06/21 08:52:09;;;;;;;10.68;9.57;;;;;;;;;;4968852;28;20153;-62
2023/06/21 08:54:36;;;;;;;11.18;9.82;;;;;;;;;;4969229;28;20517;-62
2023/06/21 08:57:05;;;;;;;12.35;9.90;;;;;;;;;;4974075;28;20497;-62
2023/06/21 08:59:35;;;;;;;11.18;9.40;;;;;;;;;;4975804;28;20043;-61
2023/06/21 09:02:13;;;;;;;10.43;9.32;;;;;;;;;;4975648;28;20058;-61
2023/06/21 09:04:43;;;;;;;11.38;8.07;;;;;;;;;;4975698;28;20074;-61
2023/06/21 09:07:09;;;;;;;10.10;8.13;;;;;;;;;;4973527;28;20047;-62
2023/06/21 09:09:36;;;;;;;9.40;8.15;;;;;;;;;;4972819;28;20525;-61
2023/06/21 09:12:02;;;;;;;12.13;8.35;;;;;;;;;;4973063;28;20479;-62
2023/06/21 09:14:31;;;;;;;12.27;8.13;;;;;;;;;;4974365;28;20101;-61
2023/06/21 09:17:00;;;;;;;8.05;5.80;;;;;;;;;;4975342;28;20069;-61
2023/06/21 09:19:26;;;;;;;5.65;4.78;;;;;;;;;;4976222;28;20050;-61
2023/06/21 09:21:53;;;;;;;9.68;5.95;;;;;;;;;;4974869;28;20051;-61
2023/06/21 09:24:20;;;;;;;10.95;6.40;;;;;;;;;;4975556;28;20061;-60
2023/06/21 09:26:46;;;;;;;10.20;7.55;;;;;;;;;;4975350;28;20050;-60
2023/06/21 09:29:12;;;;;;;8.27;7.03;;;;;;;;;;4976107;28;20127;-61
2023/06/21 09:31:38;;;;;;;7.32;4.78;;;;;;;;;;4975831;28;20501;-60
2023/06/21 09:34:04;;;;;;;6.88;4.63;;;;;;;;;;4966400;28;20158;-60
2023/06/21 09:36:30;;;;;;;6.47;5.15;;;;;;;;;;4964983;28;20058;-61
2023/06/21 09:39:09;;;;;;;5.97;5.15;;;;;;;;;;4963231;28;20047;-61
2023/06/21 09:41:35;;;;;;;7.45;6.13;;;;;;;;;;4975930;28;20061;-61
2023/06/21 09:44:02;;;;;;;5.65;4.05;;;;;;;;;;4974142;28;20050;-60
2023/06/21 09:46:29;;;;;;;7.18;4.35;;;;;;;;;;4969727;28;20058;-61
2023/06/21 09:49:05;;;;;;;7.10;4.82;;;;;;;;;;4972466;28;20560;-61
2023/06/21 09:51:31;;;;;;;6.28;5.30;;;;;;;;;;4974063;28;20087;-61
2023/06/21 09:53:58;;;;;;;6.35;5.38;;;;;;;;;;4972831;28;20043;-61
2023/06/21 09:56:24;;;;;;;7.47;4.78;;;;;;;;;;4973376;28;20046;-61
2023/06/21 09:58:52;;;;;;;6.75;5.20;;;;;;;;;;4961326;28;20122;-61
2023/06/21 10:01:18;;;;;;;6.78;4.90;;;;;;;;;;4968372;28;20109;-61
2023/06/21 10:03:45;;;;;;;7.57;5.03;;;;;;;;;;4966080;28;20054;-61
2023/06/21 10:06:16;;;;;;;8.07;5.63;;;;;;;;;;4967997;28;20042;-61
2023/06/21 10:08:42;;;;;;;7.90;6.45;;;;;;;;;;4964459;28;20059;-61
2023/06/21 10:11:08;;;;;;;9.90;5.88;;;;;;;;;;4964177;28;20429;-61
2023/06/21 10:13:38;;;;;;;8.18;5.47;;;;;;;;;;4961390;28;20044;-61
2023/06/21 10:16:04;;;;;;;7.63;5.22;;;;;;;;;;4964883;28;20042;-61
2023/06/21 10:18:31;;;;;;;9.05;5.63;;;;;;;;;;4966022;28;20069;-60
2023/06/21 10:21:04;;;;;;;10.85;6.60;;;;;;;;;;4965547;28;20150;-60
2023/06/21 10:23:31;;;;;;;;;;;;;;;;;;4963085;28;20038;-60
2023/06/21 10:26:00;;;;;;;10.10;6.70;;;;;;;;;;4965905;28;19923;-60
2023/06/21 10:28:30;;;;;;;8.30;6.18;;;;;;;;;;4963290;28;20141;-61
2023/06/21 10:30:56;;;;;;;7.65;5.32;;;;;;;;;;4962331;28;20050;-61
2023/06/21 10:33:23;;;;;;;10.45;6.90;;;;;;;;;;4961743;28;20050;-61
2023/06/21 10:35:50;;;;;;;9.00;5.55;;;;;;;;;;4969339;28;20051;-61
2023/06/21 10:38:19;;;;;;;7.82;6.30;;;;;;;;;;4961315;28;20045;-60
2023/06/21 10:40:46;;;;;;;6.35;5.75;;;;;;;;;;4970681;28;20599;-61
2023/06/21 10:43:12;;;;;;;9.50;6.30;;;;;;;;;;4970947;28;20134;-61
2023/06/21 10:45:39;;;;;;;8.38;6.32;;;;;;;;;;4971968;28;20053;-61
2023/06/21 10:48:05;;;;;;;8.43;7.20;;;;;;;;;;4965613;28;20039;-61
2023/06/21 10:50:32;;;;;;;7.20;6.13;;;;;;;;;;4968706;28;20138;-61
2023/06/21 10:52:58;;;;;;;7.82;6.20;;;;;;;;;;4969481;28;20043;-60
2023/06/21 10:55:24;;;;;;;7.45;6.75;;;;;;;;;;4970585;28;20047;-60
2023/06/21 10:57:53;;;;;;;6.95;6.15;;;;;;;;;;4970669;28;20097;-61
2023/06/21 11:00:19;;;;;;;7.25;6.20;;;;;;;;;;4970710;28;20070;-61
2023/06/21 11:02:46;;;;;;;8.52;6.60;;;;;;;;;;4969200;28;20046;-61
2023/06/21 11:05:17;;;;;;;6.65;5.68;;;;;;;;;;4968841;28;20034;-61
2023/06/21 11:08:04;;;;;;;7.63;6.43;;;;;;;;;;4969282;28;20059;-61
2023/06/21 11:10:42;;;;;;;6.28;5.43;;;;;;;;;;4969223;28;20054;-61
2023/06/21 11:13:08;;;;;;;8.38;5.55;;;;;;;;;;4968734;28;20505;-61
2023/06/21 11:15:37;;;;;;;6.53;5.82;;;;;;;;;;4969298;28;20082;-62
2023/06/21 11:18:06;;;;;;;6.97;6.03;;;;;;;;;;4970051;28;20193;-61
2023/06/21 11:20:43;;;;;;;7.78;6.40;;;;;;;;;;4969971;28;20457;-61
2023/06/21 11:23:09;;;;;;;7.88;5.28;;;;;;;;;;4970712;28;20043;-61
2023/06/21 11:25:36;;;;;;;6.63;5.43;;;;;;;;;;4970266;28;20604;-61
2023/06/21 11:28:20;;;;;;;8.93;5.97;;;;;;;;;;4970193;28;20042;-61
2023/06/21 11:31:01;;;;;;;7.50;6.80;;;;;;;;;;4970701;28;20043;-61
2023/06/21 11:33:30;;;;;;;8.93;6.97;;;;;;;;;;4970194;28;20400;-61
2023/06/21 11:36:06;;;;;;;7.32;5.75;;;;;;;;;;4969920;28;20039;-61
2023/06/21 11:38:33;;;;;;;6.47;5.68;;;;;;;;;;4970374;28;20049;-61
2023/06/21 11:40:59;;;;;;;6.57;5.57;;;;;;;;;;4970108;28;20109;-62
2023/06/21 11:43:25;;;;;;;8.07;5.90;;;;;;;;;;4970084;28;20637;-61
2023/06/21 11:46:00;;;;;;;8.70;6.38;;;;;;;;;;4970409;28;20054;-61
2023/06/21 11:48:30;;;;;;;8.43;6.63;;;;;;;;;;4969609;28;20046;-61
2023/06/21 11:51:17;;;;;;;9.07;6.88;;;;;;;;;;4970179;28;20043;-61
2023/06/21 11:53:43;;;;;;;7.50;6.05;;;;;;;;;;4969523;28;20061;-61
2023/06/21 11:56:10;;;;;;;9.05;6.15;;;;;;;;;;4969527;28;20042;-61
2023/06/21 11:58:36;;;;;;;8.90;7.63;;;;;;;;;;4970465;28;21323;-61
2023/06/21 12:01:03;;;;;;;8.90;6.38;;;;;;;;;;4969876;28;20043;-61
2023/06/21 12:03:29;;;;;;;6.20;5.60;;;;;;;;;;4969657;28;20042;-61
2023/06/21 12:05:55;;;;;;;7.88;6.95;;;;;;;;;;4969495;28;20600;-62
2023/06/21 12:08:22;;;;;;;5.78;5.28;;;;;;;;;;4970110;28;20066;-61
2023/06/21 12:10:49;;;;;;;6.13;5.53;;;;;;;;;;4969980;28;20062;-61
2023/06/21 12:13:16;;;;;;;8.63;4.65;;;;;;;;;;4969722;28;20659;-61
2023/06/21 12:16:05;;;;;;;4.60;4.18;;;;;;;;;;4970069;28;20065;-61
2023/06/21 12:18:32;;;;;;;6.75;4.40;;;;;;;;;;4969272;28;20043;-62
2023/06/21 12:20:59;;;;;;;6.25;4.18;;;;;;;;;;4969470;28;20515;-62
2023/06/21 12:23:25;;;;;;;5.28;3.92;;;;;;;;;;4969501;28;20077;-62
2023/06/21 12:25:52;;;;;;;5.28;3.38;;;;;;;;;;4969611;28;20058;-62
2023/06/21 12:28:22;;;;;;;5.25;3.65;;;;;;;;;;4968856;28;20047;-62
2023/06/21 12:30:49;;;;;;;4.35;3.95;;;;;;;;;;4968623;28;20051;-62
2023/06/21 12:33:16;;;;;;;5.22;4.05;;;;;;;;;;4969212;28;20059;-62
2023/06/21 12:35:46;;;;;;;4.53;4.10;;;;;;;;;;4969611;28;20042;-62
2023/06/21 12:38:13;;;;;;;4.47;3.60;;;;;;;;;;4969665;28;20544;-62
2023/06/21 12:40:51;;;;;;;4.18;3.78;;;;;;;;;;4969294;28;20046;-62
2023/06/21 12:43:30;;;;;;;6.75;3.67;;;;;;;;;;4969385;28;20102;-62
2023/06/21 12:45:56;;;;;;;7.50;3.38;;;;;;;;;;4969138;28;20094;-62
2023/06/21 12:48:22;;;;;;;6.90;3.90;;;;;;;;;;4969337;28;20433;-62
2023/06/21 12:50:48;;;;;;;5.63;3.78;;;;;;;;;;4968950;28;20113;-62
2023/06/21 12:53:22;;;;;;;5.45;3.65;;;;;;;;;;4968813;28;20055;-62
2023/06/21 12:55:48;;;;;;;7.15;3.85;;;;;;;;;;4969014;28;20046;-62
2023/06/21 12:58:15;;;;;;;8.35;3.30;;;;;;;;;;4969027;28;20157;-62
2023/06/21 13:00:41;;;;;;;5.70;3.17;;;;;;;;;;4969361;28;20105;-63
2023/06/21 13:03:08;;;;;;;5.10;3.08;;;;;;;;;;4969127;28;20050;-63
2023/06/21 13:05:34;;;;;;;5.15;3.70;;;;;;;;;;4969090;28;20138;-63
2023/06/21 13:08:00;;;;;;;5.25;3.13;;;;;;;;;;4969092;28;20129;-63
2023/06/21 13:10:26;;;;;;;4.88;2.75;;;;;;;;;;4968884;28;20051;-63
2023/06/21 13:12:52;;;;;;;4.07;2.55;;;;;;;;;;4968962;28;20450;-63
2023/06/21 13:15:18;;;;;;;5.22;3.05;;;;;;;;;;4968834;28;20441;-63
2023/06/21 13:17:44;;;;;;;5.90;3.22;;;;;;;;;;4969043;28;20082;-63
2023/06/21 13:20:10;;;;;;;3.80;2.80;;;;;;;;;;4969084;28;20477;-63
2023/06/21 13:22:36;;;;;;;4.43;2.58;;;;;;;;;;4969011;28;20055;-63
2023/06/21 13:25:03;;;;;;;8.55;2.72;;;;;;;;;;4968494;28;20050;-64
2023/06/21 13:27:29;;;;;;;4.78;2.67;;;;;;;;;;4968676;28;20051;-63
2023/06/21 13:29:56;;;;;;;5.13;2.60;;;;;;;;;;4968840;28;20163;-63
2023/06/21 13:32:22;;;;;;;4.28;2.40;;;;;;;;;;4968519;28;20524;-63
2023/06/21 13:34:48;;;;;;;7.63;2.35;;;;;;;;;;4969092;28;20049;-63
2023/06/21 13:37:14;;;;;;;4.53;2.55;;;;;;;;;;4968697;28;20504;-63
2023/06/21 13:39:40;;;;;;;3.92;2.60;;;;;;;;;;4967427;28;20086;-63
2023/06/21 13:42:06;;;;;;;4.65;1.98;;;;;;;;;;4951684;28;20043;-63
2023/06/21 13:44:32;;;;;;;4.28;2.55;;;;;;;;;;4972556;28;20121;-63
2023/06/21 13:46:57;;;;;;;3.22;1.90;;;;;;;;;;4972192;28;20493;-63
2023/06/21 13:49:23;;;;;;;3.40;2.30;;;;;;;;;;4971666;28;20042;-63
2023/06/21 13:51:49;;;;;;;7.03;2.90;;;;;;;;;;4972326;28;20142;-63
2023/06/21 13:54:15;;;;;;;3.83;2.00;;;;;;;;;;4972608;28;20081;-63
2023/06/21 13:56:41;;;;;;;3.40;2.40;;;;;;;;;;4972040;28;20042;-63
2023/06/21 13:59:08;;;;;;;6.15;2.28;;;;;;;;;;4971453;28;20050;-63
2023/06/21 14:01:35;;;;;;;4.88;3.30;;;;;;;;;;4972249;28;20047;-63
2023/06/21 14:04:02;;;;;;;5.10;2.50;;;;;;;;;;4972238;28;20047;-63
2023/06/21 14:06:28;;;;;;;4.60;3.38;;;;;;;;;;4972113;28;20047;-63
2023/06/21 14:08:54;;;;;;;6.90;2.47;;;;;;;;;;4987785;28;20062;-63
2023/06/21 14:11:20;;;;;;;3.92;2.25;;;;;;;;;;4991554;28;20050;-63
2023/06/21 14:13:46;;;;;;;3.80;2.00;;;;;;;;;;4990867;28;20051;-63
2023/06/21 14:16:12;;;;;;;6.20;2.10;;;;;;;;;;4991436;28;20042;-63
2023/06/21 14:18:39;;;;;;;4.30;2.38;;;;;;;;;;4991548;28;20480;-63
2023/06/21 14:21:07;;;;;;;3.80;2.25;;;;;;;;;;4991241;28;20050;-63